Time;durP1;ratioP1;P1;durP2;ratioP2;P2;SDS_P1;SDS_P2;PMS_P1;PMS_P2;Temp;Humidity;BMP_temperature;BMP_pressure;BME280_temperature;BME280_humidity;BME280_pressure;Samples;Min_cycle;Max_cycle;Signal;HPM_P1;HPM_P2
2022/03/08 00:01:07;;;;;;;20.50;12.73;;;-4.50;99.90;;;;;;5000578;28;20211;-80
2022/03/08 00:03:33;;;;;;;19.67;11.67;;;-4.50;99.90;;;;;;5000077;28;20447;-80
2022/03/08 00:05:59;;;;;;;20.27;11.37;;;-4.60;99.90;;;;;;5001265;28;20441;-80
2022/03/08 00:08:25;;;;;;;18.80;11.07;;;-4.70;99.90;;;;;;5000185;28;20411;-80
2022/03/08 00:10:52;;;;;;;23.93;13.37;;;-4.70;99.90;;;;;;4999905;28;20438;-80
2022/03/08 00:13:17;;;;;;;26.00;14.27;;;-4.80;99.90;;;;;;4998817;28;20471;-80
2022/03/08 00:15:43;;;;;;;25.40;13.43;;;-4.80;99.90;;;;;;4998509;28;20213;-80
2022/03/08 00:18:09;;;;;;;25.20;14.77;;;-4.90;99.90;;;;;;5000074;28;20176;-80
2022/03/08 00:20:35;;;;;;;28.67;15.13;;;-4.90;99.90;;;;;;4999053;28;20606;-80
2022/03/08 00:23:01;;;;;;;24.90;14.17;;;-5.00;99.90;;;;;;4999906;28;20168;-80
2022/03/08 00:25:27;;;;;;;28.03;15.50;;;-5.00;99.90;;;;;;4998318;28;20202;-80
2022/03/08 00:27:53;;;;;;;30.40;16.07;;;-5.00;99.90;;;;;;4999793;28;20399;-80
2022/03/08 00:30:22;;;;;;;25.30;14.30;;;-5.10;99.90;;;;;;4998235;28;20428;-80
2022/03/08 00:32:49;;;;;;;27.97;15.37;;;-5.00;99.90;;;;;;4999336;28;20175;-80
2022/03/08 00:35:15;;;;;;;24.90;13.70;;;-5.00;99.90;;;;;;4998988;28;20971;-80
2022/03/08 00:37:42;;;;;;;21.17;13.43;;;-5.00;99.90;;;;;;4997498;28;20419;-80
2022/03/08 00:40:10;;;;;;;22.60;13.03;;;-5.00;99.90;;;;;;4998714;28;20676;-80
2022/03/08 00:42:35;;;;;;;23.47;13.03;;;-5.00;99.90;;;;;;4997298;28;20477;-80
2022/03/08 00:45:01;;;;;;;22.00;13.40;;;-5.10;99.90;;;;;;4997157;28;20439;-80
2022/03/08 00:47:27;;;;;;;24.37;12.50;;;-5.10;99.90;;;;;;4998296;28;20249;-80
2022/03/08 00:49:54;;;;;;;24.20;12.33;;;-5.10;99.90;;;;;;4997318;28;20286;-80
2022/03/08 00:52:20;;;;;;;21.07;12.93;;;-5.10;99.90;;;;;;4996875;28;20167;-80
2022/03/08 00:54:45;;;;;;;22.80;13.10;;;-5.10;99.90;;;;;;4995922;28;20497;-79
2022/03/08 00:57:11;;;;;;;21.87;13.50;;;-5.10;99.90;;;;;;4996193;28;20422;-80
2022/03/08 00:59:37;;;;;;;31.70;14.17;;;-5.20;99.90;;;;;;4997453;28;20174;-80
2022/03/08 01:02:03;;;;;;;26.63;13.47;;;-5.20;99.90;;;;;;4997681;28;20210;-80
2022/03/08 01:04:29;;;;;;;22.97;13.03;;;-5.20;99.90;;;;;;4998105;28;20690;-80
2022/03/08 01:06:55;;;;;;;21.67;13.37;;;-5.20;99.90;;;;;;4999718;28;20410;-80
2022/03/08 01:09:22;;;;;;;19.73;12.00;;;-5.20;99.90;;;;;;4998834;28;20192;-80
2022/03/08 01:11:48;;;;;;;22.40;13.30;;;-5.40;99.90;;;;;;5000166;28;20194;-80
2022/03/08 01:14:13;;;;;;;22.10;12.40;;;-5.40;99.90;;;;;;4998473;28;20439;-80
2022/03/08 01:16:39;;;;;;;24.13;12.70;;;-5.50;99.90;;;;;;4998817;28;20181;-80
2022/03/08 01:19:06;;;;;;;20.30;12.87;;;-5.60;99.90;;;;;;5001296;28;20183;-80
2022/03/08 01:21:35;;;;;;;24.93;12.77;;;-5.60;99.90;;;;;;4997787;28;20211;-80
2022/03/08 01:24:02;;;;;;;24.47;14.03;;;-5.60;99.90;;;;;;4998231;28;20453;-80
2022/03/08 01:26:28;;;;;;;22.83;13.00;;;-5.70;99.90;;;;;;5006287;28;20422;-80
2022/03/08 01:28:53;;;;;;;24.90;13.67;;;-5.80;99.90;;;;;;5008735;28;20422;-79
2022/03/08 01:31:19;;;;;;;22.27;13.27;;;-5.80;99.90;;;;;;5008907;28;20224;-80
2022/03/08 01:33:45;;;;;;;24.03;12.50;;;-5.90;99.90;;;;;;5000146;28;20224;-80
2022/03/08 01:36:12;;;;;;;24.17;11.90;;;-6.00;99.90;;;;;;4999398;28;20671;-80
2022/03/08 01:38:37;;;;;;;20.37;12.03;;;-6.00;99.90;;;;;;4998933;28;20249;-80
2022/03/08 01:41:03;;;;;;;19.40;11.50;;;-6.10;99.90;;;;;;4997528;28;20454;-80
2022/03/08 01:43:29;;;;;;;26.07;12.53;;;-6.10;99.90;;;;;;4997014;28;20185;-80
2022/03/08 01:45:54;;;;;;;25.07;14.03;;;-6.10;99.90;;;;;;4998530;28;20198;-80
2022/03/08 01:48:20;;;;;;;20.37;12.13;;;-6.10;99.90;;;;;;4996694;28;20239;-80
2022/03/08 01:50:47;;;;;;;23.83;13.33;;;-6.10;99.90;;;;;;4998472;28;20194;-80
2022/03/08 01:53:13;;;;;;;22.30;12.27;;;-6.10;99.90;;;;;;4997989;28;20171;-80
2022/03/08 01:55:39;;;;;;;24.47;13.30;;;-6.10;99.90;;;;;;4998105;28;20503;-80
2022/03/08 01:58:05;;;;;;;21.80;12.53;;;-6.10;99.90;;;;;;4997826;28;20498;-80
2022/03/08 02:00:31;;;;;;;23.60;13.83;;;-6.20;99.90;;;;;;4997522;28;20205;-80
2022/03/08 02:03:02;;;;;;;23.30;12.87;;;-6.30;99.90;;;;;;4997376;28;20636;-80
2022/03/08 02:05:29;;;;;;;23.67;13.70;;;-6.30;99.90;;;;;;4996251;28;20441;-80
2022/03/08 02:07:55;;;;;;;23.00;12.33;;;-6.30;99.90;;;;;;4996222;28;20579;-80
2022/03/08 02:10:21;;;;;;;20.13;11.43;;;-6.30;99.90;;;;;;4995996;28;20207;-80
2022/03/08 02:12:47;;;;;;;21.67;12.47;;;-6.30;99.90;;;;;;4996203;28;20496;-80
2022/03/08 02:15:18;;;;;;;24.70;12.53;;;-6.20;99.90;;;;;;4996413;28;20446;-80
2022/03/08 02:17:44;;;;;;;22.67;13.00;;;-6.30;99.90;;;;;;4997588;28;20159;-80
2022/03/08 02:20:11;;;;;;;22.43;12.73;;;-6.30;99.90;;;;;;4997129;28;20453;-80
2022/03/08 02:22:39;;;;;;;21.37;12.47;;;-6.40;99.90;;;;;;4996303;28;20453;-79
2022/03/08 02:25:05;;;;;;;22.97;13.13;;;-6.40;99.90;;;;;;4996348;28;20445;-80
2022/03/08 02:27:31;;;;;;;21.37;12.70;;;-6.40;99.90;;;;;;4996080;28;20407;-80
2022/03/08 02:29:58;;;;;;;21.03;11.40;;;-6.50;99.90;;;;;;4996067;28;20426;-80
2022/03/08 02:32:24;;;;;;;21.67;12.13;;;-6.50;99.90;;;;;;4998385;28;20785;-79
2022/03/08 02:34:50;;;;;;;19.50;12.03;;;-6.50;99.90;;;;;;4995556;28;20445;-80
2022/03/08 02:37:16;;;;;;;20.47;12.03;;;-6.60;99.90;;;;;;4995605;28;20193;-80
2022/03/08 02:39:43;;;;;;;21.70;13.03;;;-6.60;99.90;;;;;;4997051;28;20168;-79
2022/03/08 02:42:09;;;;;;;21.53;12.07;;;-6.60;99.90;;;;;;4995675;28;20186;-80
2022/03/08 02:44:36;;;;;;;23.93;12.73;;;-6.60;99.90;;;;;;4995438;28;20446;-79
2022/03/08 02:47:04;;;;;;;21.87;12.97;;;-6.60;99.90;;;;;;4996053;28;20178;-80
2022/03/08 02:49:31;;;;;;;25.57;12.80;;;-6.60;99.90;;;;;;4997119;28;20405;-80
2022/03/08 02:51:57;;;;;;;24.87;13.10;;;-6.60;99.90;;;;;;4995957;28;20429;-80
2022/03/08 02:54:23;;;;;;;20.70;12.47;;;-6.60;99.90;;;;;;4996855;28;20442;-80
2022/03/08 02:56:49;;;;;;;24.17;12.27;;;-6.60;99.90;;;;;;4997538;28;20175;-80
2022/03/08 02:59:24;;;;;;;23.73;13.07;;;-6.50;99.90;;;;;;4996185;28;20422;-80
2022/03/08 03:01:49;;;;;;;24.50;13.60;;;-6.40;99.90;;;;;;4996841;28;20198;-80
2022/03/08 03:04:15;;;;;;;22.07;11.80;;;-6.40;99.90;;;;;;4995628;28;20542;-80
2022/03/08 03:06:41;;;;;;;22.43;12.40;;;-6.30;99.90;;;;;;4995600;28;20214;-80
2022/03/08 03:09:07;;;;;;;21.43;12.23;;;-6.30;99.90;;;;;;4996833;28;20175;-80
2022/03/08 03:11:34;;;;;;;23.23;13.03;;;-6.30;99.90;;;;;;4996569;28;20171;-80
2022/03/08 03:13:59;;;;;;;23.43;12.33;;;-6.30;99.90;;;;;;4995313;28;20490;-80
2022/03/08 03:16:26;;;;;;;21.00;13.23;;;-6.40;99.90;;;;;;4996872;28;20417;-80
2022/03/08 03:18:51;;;;;;;24.67;11.80;;;-6.40;99.90;;;;;;4996236;28;20181;-80
2022/03/08 03:21:17;;;;;;;22.77;12.80;;;-6.60;99.90;;;;;;4998138;28;20471;-80
2022/03/08 03:23:43;;;;;;;22.57;12.23;;;;;;;;;;4998669;28;20205;-80
2022/03/08 03:26:09;;;;;;;21.63;12.97;;;-6.60;99.90;;;;;;4998983;28;20182;-80
2022/03/08 03:28:35;;;;;;;22.37;12.73;;;;;;;;;;5000169;28;20745;-80
2022/03/08 03:31:01;;;;;;;19.17;11.63;;;;;;;;;;5001166;28;20580;-80
2022/03/08 03:33:27;;;;;;;21.83;12.67;;;;;;;;;;4998940;28;20977;-80
2022/03/08 03:35:52;;;;;;;23.17;12.27;;;-6.70;99.90;;;;;;5001092;28;20417;-80
2022/03/08 03:38:18;;;;;;;20.50;11.77;;;;;;;;;;4999060;28;20908;-79
2022/03/08 03:40:44;;;;;;;23.67;12.37;;;-6.70;99.90;;;;;;5001781;28;20250;-79
2022/03/08 03:43:11;;;;;;;17.67;11.00;;;-6.80;99.90;;;;;;4998209;28;20841;-80
2022/03/08 03:45:37;;;;;;;23.97;11.50;;;-6.90;99.90;;;;;;4998544;28;20194;-79
2022/03/08 03:48:03;;;;;;;20.83;11.97;;;-6.90;99.90;;;;;;4997401;28;20453;-79
2022/03/08 03:50:28;;;;;;;23.10;13.07;;;-7.00;99.90;;;;;;4997330;28;20925;-80
2022/03/08 03:52:55;;;;;;;23.60;12.70;;;;;;;;;;5000347;28;20426;-80
2022/03/08 03:55:20;;;;;;;22.83;12.10;;;-7.00;99.90;;;;;;4999608;28;20305;-80
2022/03/08 03:57:46;;;;;;;21.37;12.93;;;-7.00;99.90;;;;;;4998770;28;20839;-80
2022/03/08 04:00:14;;;;;;;20.97;12.57;;;-6.90;99.90;;;;;;4998596;28;20589;-80
2022/03/08 04:02:40;;;;;;;19.93;12.20;;;-6.90;99.90;;;;;;4999725;28;20610;-80
2022/03/08 04:05:07;;;;;;;22.73;12.80;;;-6.90;99.90;;;;;;4999899;28;20501;-79
2022/03/08 04:07:33;;;;;;;23.50;13.03;;;-6.90;99.90;;;;;;4999517;28;20178;-80
2022/03/08 04:09:58;;;;;;;23.53;13.17;;;-6.90;99.90;;;;;;4999679;28;20414;-80
2022/03/08 04:12:24;;;;;;;21.97;12.73;;;-6.90;99.90;;;;;;4998254;28;20225;-81
2022/03/08 04:14:50;;;;;;;22.60;12.60;;;-6.80;99.90;;;;;;4999628;28;20225;-80
2022/03/08 04:17:15;;;;;;;17.30;10.40;;;-7.00;99.90;;;;;;4998923;28;20185;-80
2022/03/08 04:19:42;;;;;;;21.20;12.00;;;-7.00;99.90;;;;;;4999728;28;20179;-80
2022/03/08 04:22:08;;;;;;;18.60;11.37;;;;;;;;;;5000073;28;20206;-80
2022/03/08 04:24:34;;;;;;;24.13;12.80;;;-7.10;99.90;;;;;;4998923;28;20507;-80
2022/03/08 04:27:00;;;;;;;23.60;13.07;;;;;;;;;;4998648;28;20916;-80
2022/03/08 04:29:25;;;;;;;20.00;12.10;;;-7.30;99.90;;;;;;4998687;28;20556;-79
2022/03/08 04:31:51;;;;;;;26.97;12.90;;;-7.30;99.90;;;;;;5001170;28;20424;-80
2022/03/08 04:34:17;;;;;;;25.73;12.60;;;-7.30;99.90;;;;;;5002403;28;20199;-79
2022/03/08 04:36:42;;;;;;;30.57;12.47;;;-7.30;99.90;;;;;;5014138;28;20177;-79
2022/03/08 04:39:09;;;;;;;23.80;13.00;;;-7.40;99.90;;;;;;5002164;28;20178;-80
2022/03/08 04:41:34;;;;;;;26.27;14.20;;;-7.40;99.90;;;;;;4998553;28;20680;-79
2022/03/08 04:44:00;;;;;;;41.30;18.27;;;-7.40;99.90;;;;;;4999201;28;20463;-80
2022/03/08 04:46:26;;;;;;;39.20;18.27;;;-7.30;99.90;;;;;;4999754;28;20171;-80
2022/03/08 04:48:51;;;;;;;36.70;16.40;;;-7.30;99.90;;;;;;4998238;28;20664;-80
2022/03/08 04:51:17;;;;;;;29.40;15.37;;;-7.40;99.90;;;;;;5001416;28;20485;-79
2022/03/08 04:53:43;;;;;;;27.43;13.77;;;-7.30;99.90;;;;;;4999419;28;20589;-79
2022/03/08 04:56:08;;;;;;;23.13;12.10;;;-7.30;99.90;;;;;;4998073;28;20202;-79
2022/03/08 04:58:34;;;;;;;29.37;14.77;;;-7.30;99.90;;;;;;4999633;28;20245;-80
2022/03/08 05:01:00;;;;;;;24.47;13.23;;;-7.30;99.90;;;;;;5001067;28;20201;-80
2022/03/08 05:03:25;;;;;;;26.43;13.43;;;-7.40;99.90;;;;;;5000110;28;20224;-80
2022/03/08 05:05:51;;;;;;;21.40;13.10;;;-7.50;99.90;;;;;;4999630;28;20206;-79
2022/03/08 05:08:17;;;;;;;27.57;13.47;;;-7.50;99.90;;;;;;5001904;28;20651;-80
2022/03/08 05:10:43;;;;;;;22.57;12.43;;;-7.50;99.90;;;;;;4997947;28;20197;-80
2022/03/08 05:13:09;;;;;;;30.57;13.13;;;-7.40;99.90;;;;;;4997827;28;20233;-81
2022/03/08 05:15:36;;;;;;;27.30;12.07;;;-7.40;99.90;;;;;;4997885;28;20809;-78
2022/03/08 05:18:02;;;;;;;20.73;12.33;;;-7.40;99.90;;;;;;4998898;28;20194;-78
2022/03/08 05:20:31;;;;;;;27.63;13.57;;;-7.30;99.90;;;;;;4997683;28;20468;-78
2022/03/08 05:23:00;;;;;;;28.43;13.90;;;-7.40;99.90;;;;;;4997009;28;20449;-79
2022/03/08 05:25:27;;;;;;;26.70;13.30;;;-7.40;99.90;;;;;;4997271;28;20985;-79
2022/03/08 05:27:52;;;;;;;28.23;13.73;;;-7.40;99.90;;;;;;4997424;28;20508;-79
2022/03/08 05:30:18;;;;;;;24.83;14.03;;;-7.40;99.90;;;;;;4998594;28;20454;-78
2022/03/08 05:32:44;;;;;;;26.47;12.47;;;-7.30;99.90;;;;;;4998442;28;20180;-79
2022/03/08 05:35:11;;;;;;;24.33;13.97;;;-7.30;99.90;;;;;;4998378;28;20694;-79
2022/03/08 05:37:36;;;;;;;27.53;13.27;;;-7.40;99.90;;;;;;4998042;28;20209;-79
2022/03/08 05:40:05;;;;;;;27.13;13.17;;;-7.40;99.90;;;;;;4996737;28;20716;-79
2022/03/08 05:42:30;;;;;;;24.00;12.80;;;-7.40;99.90;;;;;;4997358;28;20658;-78
2022/03/08 05:44:56;;;;;;;25.93;13.33;;;-7.40;99.90;;;;;;4995395;28;20440;-79
2022/03/08 05:47:22;;;;;;;31.03;14.43;;;-7.40;99.90;;;;;;4997700;28;20174;-79
2022/03/08 05:49:47;;;;;;;32.40;15.57;;;-7.40;99.90;;;;;;4998068;28;20190;-79
2022/03/08 05:52:13;;;;;;;35.40;14.80;;;-7.40;99.90;;;;;;4998425;28;20188;-79
2022/03/08 05:54:38;;;;;;;30.03;14.90;;;-7.40;99.90;;;;;;4998056;28;20253;-79
2022/03/08 05:57:05;;;;;;;28.67;15.00;;;-7.40;99.90;;;;;;4997696;28;20190;-79
2022/03/08 05:59:30;;;;;;;34.03;15.77;;;-7.40;99.90;;;;;;4997700;28;20249;-79
2022/03/08 06:01:56;;;;;;;35.43;17.03;;;-7.40;99.90;;;;;;4997805;28;20971;-78
2022/03/08 06:04:22;;;;;;;33.07;18.60;;;-7.40;99.90;;;;;;4996506;28;20684;-79
2022/03/08 06:06:49;;;;;;;40.73;19.40;;;-7.40;99.90;;;;;;4997502;28;20185;-79
2022/03/08 06:09:16;;;;;;;38.27;18.43;;;-7.40;99.90;;;;;;4997827;28;20209;-80
2022/03/08 06:11:42;;;;;;;41.30;18.87;;;-7.40;99.90;;;;;;4997748;28;20960;-78
2022/03/08 06:14:08;;;;;;;38.67;18.93;;;-7.30;99.90;;;;;;4998841;28;20464;-79
2022/03/08 06:16:34;;;;;;;43.57;19.90;;;-7.30;99.90;;;;;;5000275;28;20274;-79
2022/03/08 06:18:59;;;;;;;37.17;18.37;;;-7.30;99.90;;;;;;5009717;28;20201;-79
2022/03/08 06:21:25;;;;;;;38.83;18.50;;;-7.20;99.90;;;;;;5009905;28;20252;-79
2022/03/08 06:23:51;;;;;;;34.90;17.77;;;-7.10;99.90;;;;;;5004249;28;20202;-79
2022/03/08 06:26:17;;;;;;;35.60;18.77;;;-7.10;99.90;;;;;;4997391;28;20182;-79
2022/03/08 06:28:43;;;;;;;33.13;16.47;;;-7.00;99.90;;;;;;4998605;28;20179;-79
2022/03/08 06:31:09;;;;;;;29.90;17.10;;;-6.90;99.90;;;;;;4996375;28;20419;-79
2022/03/08 06:33:34;;;;;;;27.93;15.90;;;-6.90;99.90;;;;;;4995164;28;20180;-79
2022/03/08 06:36:00;;;;;;;31.03;15.53;;;-6.90;99.90;;;;;;4995559;28;20252;-79
2022/03/08 06:38:26;;;;;;;30.27;16.83;;;-6.80;99.90;;;;;;4996853;28;20268;-79
2022/03/08 06:40:51;;;;;;;30.73;16.30;;;-6.80;99.90;;;;;;4997950;28;20684;-80
2022/03/08 06:43:17;;;;;;;28.60;15.77;;;-6.70;99.90;;;;;;4996487;28;20652;-79
2022/03/08 06:45:43;;;;;;;37.07;18.47;;;-6.70;99.90;;;;;;4997026;28;20289;-79
2022/03/08 06:48:10;;;;;;;39.23;18.40;;;-6.60;99.90;;;;;;4996347;28;20586;-79
2022/03/08 06:50:36;;;;;;;37.60;20.10;;;-6.50;99.90;;;;;;4995653;28;20444;-79
2022/03/08 06:53:01;;;;;;;27.90;16.27;;;-6.40;99.90;;;;;;4996048;28;20422;-79
2022/03/08 06:55:27;;;;;;;34.47;16.27;;;-6.30;99.90;;;;;;5000986;28;20317;-78
2022/03/08 06:57:53;;;;;;;26.50;15.23;;;-6.20;99.90;;;;;;5004021;28;20188;-81
2022/03/08 07:00:20;;;;;;;28.17;15.60;;;-6.10;99.90;;;;;;5001462;28;20237;-79
2022/03/08 07:02:45;;;;;;;31.23;15.20;;;-5.90;99.90;;;;;;5001994;28;20201;-80
2022/03/08 07:05:11;;;;;;;39.07;16.87;;;-5.70;99.90;;;;;;5002228;28;20480;-80
2022/03/08 07:07:38;;;;;;;30.03;15.97;;;-5.50;99.90;;;;;;5002144;28;20217;-80
2022/03/08 07:10:05;;;;;;;31.23;15.63;;;-5.30;99.90;;;;;;5002527;28;20183;-81
2022/03/08 07:12:31;;;;;;;27.70;13.80;;;-5.10;99.90;;;;;;5003498;28;20426;-81
2022/03/08 07:14:57;;;;;;;31.97;15.33;;;-4.90;99.90;;;;;;5007933;28;20437;-81
2022/03/08 07:17:22;;;;;;;27.03;15.50;;;-4.60;99.90;;;;;;5008689;28;20180;-81
2022/03/08 07:19:48;;;;;;;27.03;14.70;;;-4.30;99.90;;;;;;5003838;28;20186;-81
2022/03/08 07:22:15;;;;;;;26.90;15.07;;;-4.30;99.90;;;;;;5002819;28;20215;-81
2022/03/08 07:24:41;;;;;;;33.70;16.57;;;-3.80;99.90;;;;;;5000945;28;20202;-81
2022/03/08 07:27:08;;;;;;;31.47;15.97;;;-3.60;99.90;;;;;;5002580;28;20408;-81
2022/03/08 07:29:35;;;;;;;27.73;14.63;;;-3.90;99.90;;;;;;5000758;28;20179;-81
2022/03/08 07:32:00;;;;;;;24.67;14.63;;;-3.80;99.90;;;;;;4997611;28;20427;-81
2022/03/08 07:34:26;;;;;;;25.13;14.50;;;-3.70;99.90;;;;;;4997315;28;20481;-81
2022/03/08 07:36:51;;;;;;;23.87;13.93;;;-3.60;99.90;;;;;;4999138;28;20186;-81
2022/03/08 07:39:17;;;;;;;22.97;14.17;;;-3.50;99.90;;;;;;4996462;28;20184;-81
2022/03/08 07:41:43;;;;;;;24.87;14.93;;;-3.30;99.90;;;;;;4997358;28;20199;-81
2022/03/08 07:44:09;;;;;;;22.90;13.90;;;-3.10;99.90;;;;;;4998339;28;20192;-81
2022/03/08 07:46:36;;;;;;;22.70;14.13;;;-2.90;99.90;;;;;;4996817;28;20180;-81
2022/03/08 07:49:02;;;;;;;25.00;14.03;;;-2.60;99.90;;;;;;4997962;28;20179;-81
2022/03/08 07:51:28;;;;;;;21.10;13.57;;;-2.50;99.90;;;;;;4999189;28;20414;-81
2022/03/08 07:53:54;;;;;;;28.47;15.50;;;-2.30;99.90;;;;;;4999683;28;20245;-81
2022/03/08 07:56:20;;;;;;;20.20;12.37;;;-2.20;99.90;;;;;;4998000;28;20176;-81
2022/03/08 07:58:46;;;;;;;20.27;13.23;;;-2.10;99.90;;;;;;4997283;28;20179;-81
2022/03/08 08:01:12;;;;;;;20.67;13.23;;;-2.00;99.90;;;;;;4996877;28;20454;-81
2022/03/08 08:03:38;;;;;;;20.90;12.47;;;-2.00;99.90;;;;;;4998319;28;20426;-81
2022/03/08 08:06:04;;;;;;;18.13;13.03;;;-1.60;99.90;;;;;;4997128;28;20664;-81
2022/03/08 08:08:30;;;;;;;19.17;12.50;;;-1.60;99.90;;;;;;5001284;28;20176;-81
2022/03/08 08:10:55;;;;;;;18.90;12.77;;;-1.50;99.90;;;;;;5000550;28;20425;-81
2022/03/08 08:13:21;;;;;;;21.53;13.30;;;-1.20;99.90;;;;;;5000246;28;20652;-81
2022/03/08 08:15:47;;;;;;;21.03;13.67;;;-1.00;99.90;;;;;;5001062;28;20227;-81
2022/03/08 08:18:13;;;;;;;25.17;12.77;;;-0.60;99.90;;;;;;5000826;28;20199;-82
2022/03/08 08:20:39;;;;;;;18.13;11.90;;;-0.30;99.90;;;;;;5000532;28;20207;-82
2022/03/08 08:23:04;;;;;;;21.87;12.57;;;-0.30;99.90;;;;;;5001471;28;20206;-82
2022/03/08 08:25:30;;;;;;;22.70;13.00;;;-0.30;99.90;;;;;;5001058;28;20199;-81
2022/03/08 08:27:56;;;;;;;19.50;12.30;;;0.00;99.90;;;;;;5001580;28;20603;-82
2022/03/08 08:30:21;;;;;;;26.80;13.13;;;0.40;99.90;;;;;;5000762;28;20186;-81
2022/03/08 08:32:50;;;;;;;17.77;11.27;;;0.90;99.90;;;;;;5001145;28;20202;-81
2022/03/08 08:35:16;;;;;;;21.03;11.60;;;0.70;99.90;;;;;;5008183;28;20210;-81
2022/03/08 08:37:42;;;;;;;15.27;11.00;;;0.70;99.90;;;;;;5000023;28;20814;-81
2022/03/08 08:40:08;;;;;;;15.30;11.03;;;1.20;99.90;;;;;;4999710;28;20467;-82
2022/03/08 08:42:34;;;;;;;16.40;11.30;;;1.70;99.30;;;;;;4997908;28;20618;-82
2022/03/08 08:44:59;;;;;;;16.23;11.50;;;2.40;97.60;;;;;;4997775;28;20446;-82
2022/03/08 08:47:26;;;;;;;15.70;11.53;;;3.30;96.10;;;;;;4999834;28;20199;-82
2022/03/08 08:49:52;;;;;;;14.17;11.10;;;3.30;92.60;;;;;;4998869;28;20176;-82
2022/03/08 08:52:17;;;;;;;19.50;11.40;;;3.90;91.70;;;;;;4998823;28;20259;-82
2022/03/08 08:54:46;;;;;;;14.53;10.60;;;4.70;88.90;;;;;;4998799;28;20210;-82
2022/03/08 08:57:12;;;;;;;13.97;10.10;;;5.50;86.10;;;;;;4999094;28;20169;-82
2022/03/08 08:59:37;;;;;;;13.03;10.10;;;5.80;79.20;;;;;;4997240;28;20241;-80
2022/03/08 09:02:03;;;;;;;12.10;9.40;;;5.60;75.90;;;;;;4998166;28;20207;-79
2022/03/08 09:04:29;;;;;;;14.13;10.37;;;5.50;75.70;;;;;;4997281;28;20534;-81
2022/03/08 09:06:54;;;;;;;17.13;10.03;;;5.20;70.90;;;;;;4998876;28;20180;-80
2022/03/08 09:09:20;;;;;;;12.07;9.60;;;4.80;70.60;;;;;;4998854;28;20622;-80
2022/03/08 09:11:46;;;;;;;12.03;9.20;;;4.70;71.20;;;;;;4999192;28;20176;-82
2022/03/08 09:14:12;;;;;;;13.10;10.07;;;4.80;69.50;;;;;;4996672;28;20701;-82
2022/03/08 09:16:37;;;;;;;12.00;9.77;;;4.80;68.40;;;;;;4996554;28;20214;-81
2022/03/08 09:19:03;;;;;;;11.53;9.43;;;5.00;67.40;;;;;;4996412;28;20659;-81
2022/03/08 09:21:29;;;;;;;11.87;9.17;;;5.00;66.40;;;;;;4997396;28;20207;-81
2022/03/08 09:23:55;;;;;;;11.43;9.10;;;3.80;66.60;;;;;;4995768;28;20242;-81
2022/03/08 09:26:20;;;;;;;12.03;8.90;;;3.70;68.10;;;;;;5001572;28;20541;-79
2022/03/08 09:28:46;;;;;;;13.93;9.60;;;4.10;67.80;;;;;;4998359;28;20184;-80
2022/03/08 09:31:12;;;;;;;11.93;9.10;;;4.20;68.50;;;;;;5000053;28;20175;-80
2022/03/08 09:33:38;;;;;;;12.07;9.57;;;4.20;65.60;;;;;;4998558;28;20168;-80
2022/03/08 09:36:04;;;;;;;14.03;9.90;;;4.30;63.40;;;;;;4999526;28;20631;-82
2022/03/08 09:38:30;;;;;;;15.53;9.93;;;4.40;64.30;;;;;;4998973;28;20184;-82
2022/03/08 09:40:55;;;;;;;10.10;7.87;;;4.50;63.40;;;;;;5005950;28;20624;-82
2022/03/08 09:43:21;;;;;;;14.20;10.00;;;4.80;64.00;;;;;;5019875;28;20187;-82
2022/03/08 09:45:47;;;;;;;12.63;8.97;;;4.80;63.10;;;;;;5006967;28;20199;-81
2022/03/08 09:48:13;;;;;;;12.37;9.17;;;4.60;61.20;;;;;;5001431;28;20180;-82
2022/03/08 09:50:38;;;;;;;12.80;9.63;;;4.50;61.90;;;;;;5001838;28;20175;-79
2022/03/08 09:53:04;;;;;;;11.73;8.43;;;4.50;61.20;;;;;;5000820;28;20180;-81
2022/03/08 09:55:30;;;;;;;12.00;8.47;;;4.50;61.80;;;;;;5002308;28;20222;-82
2022/03/08 09:57:56;;;;;;;9.67;7.47;;;4.80;61.40;;;;;;5000098;28;20238;-81
2022/03/08 10:00:23;;;;;;;11.97;8.40;;;4.90;60.10;;;;;;5001918;28;20237;-79
2022/03/08 10:02:54;;;;;;;9.63;8.10;;;5.10;59.50;;;;;;5001549;28;20229;-80
2022/03/08 10:05:26;;;;;;;10.50;8.43;;;5.40;59.30;;;;;;4999384;28;20226;-81
2022/03/08 10:08:04;;;;;;;11.43;7.70;;;5.80;59.20;;;;;;5001019;28;20175;-79
2022/03/08 10:10:31;;;;;;;8.43;7.53;;;5.60;58.50;;;;;;5000779;28;20246;-81
2022/03/08 10:12:58;;;;;;;10.80;8.20;;;5.40;57.80;;;;;;4998925;28;20190;-81
2022/03/08 10:15:23;;;;;;;9.20;7.73;;;5.50;57.80;;;;;;4999622;28;20203;-80
2022/03/08 10:17:49;;;;;;;8.37;7.47;;;5.50;57.20;;;;;;5001295;28;20540;-80
2022/03/08 10:20:28;;;;;;;10.83;8.10;;;6.00;57.90;;;;;;5000401;28;20255;-80
2022/03/08 10:22:54;;;;;;;10.83;7.90;;;6.20;57.30;;;;;;5001973;28;20183;-81
2022/03/08 10:25:25;;;;;;;9.30;7.07;;;6.10;56.10;;;;;;4999620;28;20200;-80
2022/03/08 10:27:54;;;;;;;9.83;8.00;;;6.30;56.90;;;;;;5001441;28;20163;-79
2022/03/08 10:30:26;;;;;;;9.37;7.90;;;6.60;57.00;;;;;;5001394;28;20179;-78
2022/03/08 10:32:59;;;;;;;9.57;8.40;;;6.40;54.80;;;;;;5000784;28;20203;-79
2022/03/08 10:35:26;;;;;;;9.00;7.37;;;6.20;56.10;;;;;;5000733;28;20198;-80
2022/03/08 10:37:55;;;;;;;9.03;7.40;;;6.70;57.30;;;;;;5002845;28;20608;-80
2022/03/08 10:40:23;;;;;;;11.60;7.47;;;6.90;56.00;;;;;;5001260;28;20638;-80
2022/03/08 10:43:02;;;;;;;9.23;8.03;;;7.00;55.90;;;;;;5000268;28;20180;-82
2022/03/08 10:45:29;;;;;;;10.57;7.77;;;7.40;56.10;;;;;;4999937;28;20224;-80
2022/03/08 10:47:55;;;;;;;8.43;7.10;;;7.40;54.90;;;;;;5002300;28;20176;-80
2022/03/08 10:50:28;;;;;;;8.10;6.87;;;7.20;54.20;;;;;;5002251;28;20179;-80
2022/03/08 10:52:55;;;;;;;9.70;7.13;;;7.10;53.90;;;;;;5002737;28;20161;-80
2022/03/08 10:55:32;;;;;;;8.13;7.33;;;6.60;55.30;;;;;;5001578;28;20298;-81
2022/03/08 10:58:10;;;;;;;8.10;6.77;;;7.00;55.20;;;;;;4999015;28;20183;-79
2022/03/08 11:00:44;;;;;;;8.10;7.30;;;7.50;55.40;;;;;;5001245;28;20338;-80
2022/03/08 11:03:15;;;;;;;7.57;6.70;;;7.70;53.80;;;;;;4999441;28;20177;-80
2022/03/08 11:06:05;;;;;;;10.77;7.73;;;7.80;53.30;;;;;;5000504;28;20196;-80
2022/03/08 11:08:32;;;;;;;9.53;7.20;;;7.90;53.90;;;;;;4998750;28;20658;-80
2022/03/08 11:10:58;;;;;;;8.70;7.50;;;8.10;54.00;;;;;;5000169;28;20261;-80
2022/03/08 11:13:23;;;;;;;8.90;6.80;;;8.20;52.90;;;;;;4999812;28;20186;-81
2022/03/08 11:15:49;;;;;;;7.23;6.47;;;8.80;54.20;;;;;;5000777;28;20282;-80
2022/03/08 11:18:17;;;;;;;10.07;7.07;;;8.90;52.00;;;;;;5001652;28;20184;-80
2022/03/08 11:20:45;;;;;;;9.23;6.87;;;8.90;51.80;;;;;;5001699;28;20260;-80
2022/03/08 11:23:11;;;;;;;7.67;6.63;;;8.80;51.30;;;;;;4999934;28;20683;-79
2022/03/08 11:25:40;;;;;;;6.57;5.87;;;8.50;49.80;;;;;;4998019;28;20218;-79
2022/03/08 11:28:07;;;;;;;9.87;6.00;;;7.70;49.90;;;;;;4998070;28;20272;-81
2022/03/08 11:30:39;;;;;;;6.67;5.97;;;8.00;51.70;;;;;;4999945;28;20639;-81
2022/03/08 11:33:39;;;;;;;8.50;6.33;;;8.00;51.20;;;;;;4998018;28;20185;-80
2022/03/08 11:36:14;;;;;;;6.10;5.50;;;8.60;49.90;;;;;;4997272;28;20170;-81
2022/03/08 11:38:39;;;;;;;6.63;5.93;;;8.90;50.00;;;;;;4998562;28;20299;-79
2022/03/08 11:41:05;;;;;;;7.17;5.80;;;9.00;48.90;;;;;;4999468;28;20235;-81
2022/03/08 11:43:46;;;;;;;8.17;6.37;;;8.70;48.40;;;;;;5003442;28;20231;-80
2022/03/08 11:46:14;;;;;;;6.43;5.83;;;8.90;49.90;;;;;;5002336;28;20221;-80
2022/03/08 11:48:55;;;;;;;7.43;5.63;;;9.20;48.10;;;;;;5003651;28;20187;-82
2022/03/08 11:51:23;;;;;;;6.53;5.83;;;9.10;47.50;;;;;;5003678;28;20245;-81
2022/03/08 11:54:02;;;;;;;5.83;5.23;;;9.80;50.40;;;;;;5002294;28;20209;-81
2022/03/08 11:56:28;;;;;;;5.90;5.40;;;10.40;45.90;;;;;;5001785;28;20194;-80
2022/03/08 11:59:07;;;;;;;6.37;5.17;;;10.10;44.90;;;;;;5000171;28;20186;-81
2022/03/08 12:01:36;;;;;;;6.40;5.73;;;10.40;45.00;;;;;;4999948;28;20673;-79
2022/03/08 12:04:09;;;;;;;6.70;6.00;;;10.10;43.70;;;;;;4999147;28;20240;-79
2022/03/08 12:06:36;;;;;;;6.07;5.47;;;10.50;45.10;;;;;;4999701;28;20170;-81
2022/03/08 12:09:18;;;;;;;6.83;6.17;;;10.20;44.50;;;;;;5001322;28;20182;-79
2022/03/08 12:11:51;;;;;;;6.40;5.57;;;10.50;44.50;;;;;;5000866;28;20190;-79
2022/03/08 12:14:23;;;;;;;8.23;7.00;;;11.00;44.10;;;;;;4999897;28;20213;-79
2022/03/08 12:17:05;;;;;;;6.77;6.00;;;11.50;43.10;;;;;;5000681;28;20179;-81
2022/03/08 12:19:33;;;;;;;7.40;6.37;;;11.40;42.40;;;;;;5000433;28;20626;-81
2022/03/08 12:21:59;;;;;;;6.13;5.57;;;11.70;42.70;;;;;;5000942;28;20605;-81
2022/03/08 12:24:25;;;;;;;6.23;5.70;;;12.10;41.00;;;;;;5002176;28;20192;-81
2022/03/08 12:26:51;;;;;;;6.73;6.03;;;11.90;41.70;;;;;;5001197;28;20171;-80
2022/03/08 12:29:24;;;;;;;13.53;6.07;;;12.00;41.50;;;;;;5000706;28;20175;-81
2022/03/08 12:31:56;;;;;;;8.57;5.40;;;11.80;39.70;;;;;;5002014;28;20176;-81
2022/03/08 12:34:37;;;;;;;5.87;5.23;;;12.30;40.20;;;;;;5000481;28;20207;-79